Time;durP1;ratioP1;P1;durP2;ratioP2;P2;SDS_P1;SDS_P2;PMS_P1;PMS_P2;Temp;Humidity;BMP_temperature;BMP_pressure;BME280_temperature;BME280_humidity;BME280_pressure;Samples;Min_cycle;Max_cycle;Signal;HPM_P1;HPM_P2
2021/12/09 00:00:30;;;;;;;41.50;16.37;;;8.70;58.80;;;;;;5037205;28;21143;-87
2021/12/09 00:03:04;;;;;;;46.70;15.50;;;8.70;58.70;;;;;;5022563;28;20456;-87
2021/12/09 00:05:31;;;;;;;40.10;13.87;;;8.70;58.70;;;;;;5055256;28;20847;-87
2021/12/09 00:08:00;;;;;;;46.47;14.87;;;8.70;58.80;;;;;;5019305;28;20465;-87
2021/12/09 00:10:27;;;;;;;47.23;17.27;;;8.70;58.60;;;;;;5057625;28;20572;-87
2021/12/09 00:12:54;;;;;;;57.13;15.20;;;8.60;58.70;;;;;;5036400;28;20453;-89
2021/12/09 00:15:21;;;;;;;41.80;18.13;;;8.50;58.90;;;;;;5036326;28;20464;-87
2021/12/09 00:17:48;;;;;;;46.80;16.40;;;8.50;59.00;;;;;;5037395;28;20484;-87
2021/12/09 00:20:16;;;;;;;39.40;15.80;;;8.40;59.20;;;;;;5011700;28;21023;-87
2021/12/09 00:22:43;;;;;;;40.27;16.40;;;8.40;59.40;;;;;;5037941;28;20434;-87
2021/12/09 00:25:11;;;;;;;44.40;17.43;;;8.50;59.30;;;;;;5056912;28;21015;-88
2021/12/09 00:27:38;;;;;;;35.23;15.13;;;8.60;59.20;;;;;;5052576;28;20478;-87
2021/12/09 00:30:06;;;;;;;49.90;16.67;;;8.60;59.10;;;;;;5052828;28;20860;-87
2021/12/09 00:32:33;;;;;;;42.40;14.50;;;8.60;59.00;;;;;;5056811;28;20517;-87
2021/12/09 00:35:02;;;;;;;38.13;14.10;;;8.60;58.90;;;;;;5040128;28;20543;-87
2021/12/09 00:37:35;;;;;;;37.47;16.90;;;8.60;58.80;;;;;;5036705;28;20473;-87
2021/12/09 00:40:02;;;;;;;39.10;15.30;;;8.60;58.80;;;;;;5050324;28;20944;-87
2021/12/09 00:42:30;;;;;;;54.50;16.10;;;8.60;58.80;;;;;;5036094;28;20452;-86
2021/12/09 00:44:57;;;;;;;41.73;14.90;;;8.60;58.80;;;;;;5012426;28;20438;-88
2021/12/09 00:47:25;;;;;;;36.00;13.47;;;8.60;58.80;;;;;;5054380;28;21234;-88
2021/12/09 00:49:55;;;;;;;43.67;15.37;;;8.50;59.00;;;;;;5054651;28;20460;-85
2021/12/09 00:52:24;;;;;;;31.40;14.90;;;8.40;59.10;;;;;;5052951;28;20514;-87
2021/12/09 00:54:52;;;;;;;45.77;15.63;;;8.40;59.10;;;;;;5051302;28;20796;-87
2021/12/09 00:57:19;;;;;;;38.13;15.57;;;8.50;59.20;;;;;;5052862;28;20468;-87
2021/12/09 00:59:48;;;;;;;32.03;14.03;;;8.40;59.10;;;;;;5052487;28;20466;-87
2021/12/09 01:02:15;;;;;;;40.03;15.60;;;8.40;59.10;;;;;;5003687;28;20469;-87
2021/12/09 01:04:43;;;;;;;52.10;17.87;;;8.40;59.20;;;;;;5053450;28;20457;-88
2021/12/09 01:07:11;;;;;;;45.10;15.87;;;8.50;59.10;;;;;;5036870;28;20492;-87
2021/12/09 01:09:38;;;;;;;44.17;16.23;;;8.50;58.80;;;;;;5035993;28;20453;-87
2021/12/09 01:12:06;;;;;;;34.40;14.80;;;8.50;59.00;;;;;;5036721;28;20453;-86
2021/12/09 01:14:34;;;;;;;48.57;15.83;;;8.50;59.10;;;;;;5055072;28;20452;-87
2021/12/09 01:17:03;;;;;;;41.50;14.33;;;8.60;59.00;;;;;;5055154;28;20468;-87
2021/12/09 01:19:30;;;;;;;42.50;15.53;;;8.60;58.80;;;;;;5055402;28;20447;-86
2021/12/09 01:21:57;;;;;;;38.60;12.87;;;8.70;58.70;;;;;;5017582;28;20452;-87
2021/12/09 01:24:24;;;;;;;51.90;17.53;;;8.70;58.50;;;;;;5032372;28;20569;-88
2021/12/09 01:26:51;;;;;;;37.87;14.73;;;8.60;58.40;;;;;;5038597;28;20476;-87
2021/12/09 01:29:27;;;;;;;37.50;14.20;;;8.60;58.40;;;;;;5052566;28;20541;-87
2021/12/09 01:32:00;;;;;;;37.93;14.80;;;8.70;58.40;;;;;;5032938;28;20475;-87
2021/12/09 01:34:29;;;;;;;38.20;13.80;;;8.70;58.20;;;;;;5054006;28;21180;-86
2021/12/09 01:36:56;;;;;;;27.93;12.93;;;8.70;58.10;;;;;;5020834;28;20441;-87
2021/12/09 01:39:23;;;;;;;32.50;11.70;;;8.60;57.90;;;;;;5023560;28;20445;-87
2021/12/09 01:41:50;;;;;;;30.93;12.50;;;8.60;58.10;;;;;;5021125;28;20455;-87
2021/12/09 01:44:17;;;;;;;34.03;13.93;;;8.60;58.20;;;;;;5056000;28;20464;-87
2021/12/09 01:46:44;;;;;;;33.03;13.33;;;8.60;58.30;;;;;;5036716;28;20473;-87
2021/12/09 01:49:11;;;;;;;40.23;13.10;;;8.60;58.40;;;;;;5021982;28;20473;-87
2021/12/09 01:51:41;;;;;;;36.50;12.80;;;8.70;58.50;;;;;;5053917;28;21044;-88
2021/12/09 01:54:08;;;;;;;33.67;11.87;;;8.70;58.30;;;;;;5049721;28;20473;-87
2021/12/09 01:56:35;;;;;;;30.07;13.03;;;8.70;58.40;;;;;;5035083;28;20467;-87
2021/12/09 01:59:05;;;;;;;40.13;12.57;;;8.70;58.40;;;;;;5057442;28;20449;-87
2021/12/09 02:01:35;;;;;;;28.50;11.77;;;8.70;58.40;;;;;;5038444;28;20479;-88
2021/12/09 02:04:03;;;;;;;29.80;11.03;;;8.70;58.50;;;;;;5027932;28;20456;-87
2021/12/09 02:06:31;;;;;;;29.23;12.40;;;8.70;58.40;;;;;;5056643;28;20477;-87
2021/12/09 02:08:59;;;;;;;31.50;12.90;;;8.80;58.40;;;;;;5041474;28;20476;-87
2021/12/09 02:11:26;;;;;;;37.20;13.40;;;8.80;58.20;;;;;;5059465;28;20538;-88
2021/12/09 02:13:56;;;;;;;31.10;14.20;;;8.80;58.40;;;;;;5059541;28;20460;-87
2021/12/09 02:16:23;;;;;;;29.40;12.50;;;8.80;58.40;;;;;;5038010;28;20449;-87
2021/12/09 02:18:50;;;;;;;35.03;14.67;;;8.80;58.30;;;;;;5038189;28;20813;-87
2021/12/09 02:21:20;;;;;;;43.60;15.87;;;8.80;58.40;;;;;;5030644;28;20452;-87
2021/12/09 02:23:50;;;;;;;36.53;15.17;;;8.80;58.30;;;;;;5022359;28;20996;-85
2021/12/09 02:26:19;;;;;;;32.57;14.70;;;8.80;58.20;;;;;;5054151;28;20477;-87
2021/12/09 02:28:47;;;;;;;35.00;15.03;;;8.80;58.20;;;;;;5058227;28;20849;-86
2021/12/09 02:31:14;;;;;;;35.33;13.90;;;8.80;58.30;;;;;;5039406;28;20959;-87
2021/12/09 02:33:41;;;;;;;38.60;14.43;;;8.70;58.40;;;;;;5007474;28;20463;-87
2021/12/09 02:36:09;;;;;;;35.93;13.70;;;8.70;58.60;;;;;;5028952;28;20462;-86
2021/12/09 02:38:44;;;;;;;40.60;13.70;;;8.70;59.20;;;;;;5038505;28;20991;-87
2021/12/09 02:41:15;;;;;;;37.97;13.50;;;8.70;58.40;;;;;;5056853;28;20456;-87
2021/12/09 02:43:44;;;;;;;39.53;15.23;;;8.60;58.70;;;;;;5029100;28;20462;-87
2021/12/09 02:46:11;;;;;;;28.93;12.17;;;8.70;58.70;;;;;;5041087;28;20475;-87
2021/12/09 02:48:38;;;;;;;24.40;13.30;;;8.70;58.50;;;;;;5046344;28;20476;-87
2021/12/09 02:51:07;;;;;;;25.77;12.00;;;8.70;58.60;;;;;;5043942;28;20990;-87
2021/12/09 02:53:34;;;;;;;27.30;11.60;;;8.70;58.50;;;;;;5040040;28;20457;-87
2021/12/09 02:56:04;;;;;;;31.43;12.47;;;8.70;58.60;;;;;;5053168;28;20452;-87
2021/12/09 02:58:31;;;;;;;27.43;10.60;;;8.60;58.80;;;;;;5059617;28;20485;-87
2021/12/09 03:01:03;;;;;;;34.20;13.83;;;8.60;58.90;;;;;;5021907;28;20452;-86
2021/12/09 03:03:30;;;;;;;34.00;12.77;;;8.60;58.70;;;;;;5036674;28;20967;-86
2021/12/09 03:05:58;;;;;;;39.40;13.87;;;8.40;59.00;;;;;;5035802;28;20460;-87
2021/12/09 03:08:34;;;;;;;34.73;13.07;;;8.40;59.20;;;;;;5021879;28;20570;-87
2021/12/09 03:11:05;;;;;;;27.17;12.37;;;8.50;59.30;;;;;;5035882;28;20457;-87
2021/12/09 03:13:32;;;;;;;28.87;11.60;;;8.50;58.90;;;;;;5047288;28;20807;-86
2021/12/09 03:16:00;;;;;;;25.40;12.90;;;8.30;59.30;;;;;;5043217;28;20548;-87
2021/12/09 03:18:27;;;;;;;25.43;12.53;;;8.40;59.40;;;;;;5041343;28;20992;-88
2021/12/09 03:20:54;;;;;;;30.20;12.40;;;8.50;59.40;;;;;;5057932;28;21012;-87
2021/12/09 03:23:22;;;;;;;26.60;13.37;;;8.30;58.90;;;;;;5041660;28;20461;-86
2021/12/09 03:25:49;;;;;;;28.77;12.37;;;8.20;59.20;;;;;;5036899;28;20444;-87
2021/12/09 03:28:18;;;;;;;18.70;10.57;;;8.30;59.40;;;;;;5027644;28;20565;-88
2021/12/09 03:30:45;;;;;;;27.63;11.20;;;8.40;59.20;;;;;;5051197;28;20449;-87
2021/12/09 03:33:12;;;;;;;25.30;11.90;;;8.50;59.00;;;;;;5036545;28;20469;-86
2021/12/09 03:35:40;;;;;;;28.00;12.57;;;8.60;58.80;;;;;;5055149;28;20460;-87
2021/12/09 03:38:07;;;;;;;36.13;14.93;;;8.60;58.70;;;;;;5053870;28;20477;-87
2021/12/09 03:40:34;;;;;;;34.80;12.93;;;8.50;59.00;;;;;;5057226;28;21004;-87
2021/12/09 03:43:01;;;;;;;27.00;11.60;;;8.60;59.10;;;;;;5052562;28;20457;-87
2021/12/09 03:45:29;;;;;;;30.23;12.97;;;8.60;59.10;;;;;;5055103;28;20999;-87
2021/12/09 03:47:56;;;;;;;33.60;14.03;;;8.70;59.00;;;;;;5020561;28;20473;-89
2021/12/09 03:50:23;;;;;;;46.73;18.20;;;8.60;58.90;;;;;;5059006;28;20489;-88
2021/12/09 03:52:50;;;;;;;39.67;14.77;;;8.60;59.10;;;;;;5055812;28;20461;-87
2021/12/09 03:55:17;;;;;;;29.40;14.43;;;8.70;59.10;;;;;;5039834;28;20985;-87
2021/12/09 03:57:44;;;;;;;40.10;14.03;;;8.70;58.90;;;;;;5035991;28;20469;-87
2021/12/09 04:00:12;;;;;;;24.60;11.90;;;8.60;59.10;;;;;;5035362;28;20449;-87
2021/12/09 04:02:41;;;;;;;35.70;14.20;;;8.50;59.30;;;;;;5006890;28;20457;-87
2021/12/09 04:05:09;;;;;;;26.57;12.40;;;8.60;59.30;;;;;;5054747;28;20447;-87
2021/12/09 04:07:36;;;;;;;27.27;14.63;;;8.60;59.10;;;;;;5018451;28;20489;-86
2021/12/09 04:10:06;;;;;;;33.13;12.40;;;8.70;59.00;;;;;;5054016;28;20455;-86
2021/12/09 04:12:34;;;;;;;28.60;12.60;;;8.60;59.10;;;;;;5039851;28;20493;-88
2021/12/09 04:15:01;;;;;;;26.97;12.53;;;8.60;59.20;;;;;;5055744;28;20515;-87
2021/12/09 04:17:28;;;;;;;33.17;13.67;;;8.50;59.20;;;;;;5052477;28;20484;-86
2021/12/09 04:19:56;;;;;;;30.07;13.10;;;8.50;59.50;;;;;;5054018;28;20450;-84
2021/12/09 04:22:24;;;;;;;37.93;14.20;;;8.50;59.40;;;;;;5056262;28;20460;-88
2021/12/09 04:24:52;;;;;;;30.50;13.37;;;8.60;59.30;;;;;;5053813;28;20968;-87
2021/12/09 04:27:20;;;;;;;28.73;12.63;;;8.50;59.30;;;;;;5034818;28;20555;-88
2021/12/09 04:29:48;;;;;;;31.17;14.97;;;8.50;59.40;;;;;;5034790;28;21220;-85
2021/12/09 04:32:15;;;;;;;34.13;15.10;;;8.50;59.20;;;;;;5032198;28;20436;-86
2021/12/09 04:34:44;;;;;;;32.77;14.10;;;8.50;59.20;;;;;;5027754;28;20467;-87
2021/12/09 04:37:13;;;;;;;28.83;13.97;;;8.40;59.50;;;;;;5036888;28;20484;-87
2021/12/09 04:39:41;;;;;;;38.10;15.90;;;8.00;60.20;;;;;;5054144;28;20959;-88
2021/12/09 04:42:09;;;;;;;27.10;14.20;;;7.90;61.30;;;;;;5029603;28;20464;-87
2021/12/09 04:44:36;;;;;;;37.03;14.00;;;8.10;61.10;;;;;;5019832;28;20546;-89
2021/12/09 04:47:03;;;;;;;33.83;15.17;;;8.30;60.70;;;;;;5053258;28;20477;-85
2021/12/09 04:49:30;;;;;;;27.40;13.17;;;8.40;60.40;;;;;;5029215;28;20535;-87
2021/12/09 04:52:00;;;;;;;41.60;15.07;;;8.20;60.40;;;;;;5024246;28;20470;-86
2021/12/09 04:54:28;;;;;;;37.37;17.13;;;8.10;60.60;;;;;;5054338;28;20510;-87
2021/12/09 04:56:55;;;;;;;33.50;16.90;;;8.30;60.40;;;;;;5035942;28;20468;-87
2021/12/09 04:59:22;;;;;;;34.57;15.50;;;8.10;60.00;;;;;;5035575;28;20461;-86
2021/12/09 05:01:50;;;;;;;38.20;14.93;;;8.20;60.60;;;;;;5028199;28;20457;-88
2021/12/09 05:04:17;;;;;;;35.40;16.10;;;8.30;60.30;;;;;;5043899;28;20460;-87
2021/12/09 05:06:44;;;;;;;33.67;15.37;;;8.30;59.90;;;;;;5050801;28;20497;-86
2021/12/09 05:09:16;;;;;;;31.97;15.03;;;8.30;59.90;;;;;;5053302;28;20968;-87
2021/12/09 05:11:50;;;;;;;41.23;17.73;;;8.20;60.70;;;;;;5026388;28;20455;-88
2021/12/09 05:14:19;;;;;;;38.93;17.03;;;8.30;60.50;;;;;;5051808;28;20452;-87
2021/12/09 05:16:48;;;;;;;39.40;18.07;;;8.40;60.30;;;;;;5036916;28;21042;-87
2021/12/09 05:19:15;;;;;;;106.73;19.60;;;8.40;60.30;;;;;;5053012;28;20453;-87
2021/12/09 05:21:42;;;;;;;34.30;16.97;;;8.50;59.90;;;;;;5016581;28;20817;-87
2021/12/09 05:24:10;;;;;;;38.17;17.63;;;8.60;59.70;;;;;;5037046;28;20799;-87
2021/12/09 05:26:43;;;;;;;37.00;16.00;;;8.70;59.50;;;;;;5035660;28;20457;-86
2021/12/09 05:29:11;;;;;;;35.93;15.40;;;8.70;59.20;;;;;;5023182;28;20464;-87
2021/12/09 05:34:24;;;;;;;36.63;15.70;;;8.70;58.80;;;;;;5009863;28;20521;-88
2021/12/09 05:36:51;;;;;;;32.77;15.77;;;8.60;58.90;;;;;;5025102;28;20453;-87
2021/12/09 05:39:18;;;;;;;33.30;15.70;;;8.60;59.20;;;;;;5032767;28;20710;-88
2021/12/09 05:41:46;;;;;;;35.97;16.17;;;8.70;59.20;;;;;;5002214;28;20468;-88
2021/12/09 05:44:15;;;;;;;36.77;16.70;;;8.60;59.20;;;;;;5017156;28;20450;-87
2021/12/09 05:46:45;;;;;;;36.67;16.63;;;8.60;59.10;;;;;;5034288;28;20449;-87
2021/12/09 05:49:13;;;;;;;33.03;15.10;;;8.30;60.20;;;;;;5049110;28;20453;-88
2021/12/09 05:51:41;;;;;;;42.40;15.90;;;8.20;60.10;;;;;;5031691;28;21280;-89
2021/12/09 05:54:08;;;;;;;45.23;16.10;;;8.00;60.80;;;;;;5054959;28;20476;-87
2021/12/09 05:56:36;;;;;;;34.10;15.37;;;8.00;61.40;;;;;;5034777;28;20449;-87
2021/12/09 05:59:04;;;;;;;34.50;15.50;;;8.00;61.40;;;;;;5017088;28;20543;-86
2021/12/09 06:01:33;;;;;;;28.27;13.53;;;8.20;61.40;;;;;;5024437;28;20441;-88
2021/12/09 06:04:00;;;;;;;22.50;12.00;;;8.30;60.90;;;;;;5039539;28;20449;-86
2021/12/09 06:06:27;;;;;;;22.93;11.57;;;8.40;60.40;;;;;;5050574;28;20456;-87
2021/12/09 06:08:53;;;;;;;30.10;12.50;;;8.50;60.20;;;;;;5041286;28;20874;-87
2021/12/09 06:11:20;;;;;;;22.73;12.80;;;8.50;60.10;;;;;;5032785;28;20465;-86
2021/12/09 06:13:48;;;;;;;27.17;12.60;;;8.60;59.90;;;;;;5039400;28;20501;-88
2021/12/09 06:16:16;;;;;;;25.10;12.87;;;8.70;59.70;;;;;;5034317;28;20990;-87
2021/12/09 06:18:45;;;;;;;24.80;14.73;;;8.80;59.50;;;;;;5050020;28;20476;-87
2021/12/09 06:21:12;;;;;;;36.70;15.40;;;8.80;59.30;;;;;;5051027;28;20461;-87
2021/12/09 06:23:39;;;;;;;30.67;12.73;;;8.80;59.50;;;;;;5035357;28;20896;-88
2021/12/09 06:26:06;;;;;;;31.30;16.03;;;8.80;59.50;;;;;;5033578;28;20578;-86
2021/12/09 06:28:34;;;;;;;36.30;15.30;;;8.80;59.40;;;;;;5016087;28;20488;-88
2021/12/09 06:31:00;;;;;;;32.83;14.00;;;8.80;59.10;;;;;;5052509;28;21018;-87
2021/12/09 06:33:27;;;;;;;33.20;14.90;;;8.80;59.20;;;;;;5004201;28;20496;-89
2021/12/09 06:35:56;;;;;;;22.40;12.57;;;8.70;59.10;;;;;;5048197;28;20465;-86
2021/12/09 06:38:23;;;;;;;28.20;14.50;;;8.70;59.30;;;;;;5050531;28;20472;-87
2021/12/09 06:40:50;;;;;;;31.30;14.07;;;8.70;59.30;;;;;;5034810;28;20874;-87
2021/12/09 06:43:17;;;;;;;26.17;13.10;;;8.70;59.20;;;;;;5035130;28;20829;-87
2021/12/09 06:45:45;;;;;;;28.50;14.63;;;8.80;59.20;;;;;;5053725;28;20994;-87
2021/12/09 06:48:12;;;;;;;38.17;14.40;;;8.80;59.50;;;;;;5037792;28;20485;-88
2021/12/09 06:50:39;;;;;;;23.17;13.40;;;8.80;58.70;;;;;;5039231;28;20764;-87
2021/12/09 06:53:11;;;;;;;36.63;14.93;;;8.60;58.60;;;;;;5038722;28;20468;-88
2021/12/09 06:55:38;;;;;;;29.80;13.33;;;8.60;58.80;;;;;;5057701;28;20723;-86
2021/12/09 06:58:06;;;;;;;31.50;13.93;;;8.60;59.00;;;;;;5021205;28;20560;-86
2021/12/09 07:00:34;;;;;;;31.93;16.40;;;8.60;58.90;;;;;;5033180;28;20863;-87
2021/12/09 07:03:02;;;;;;;38.40;15.77;;;8.70;58.90;;;;;;5036544;28;20708;-88
2021/12/09 07:05:30;;;;;;;26.77;13.17;;;8.70;59.40;;;;;;5012146;28;20458;-88
2021/12/09 07:07:57;;;;;;;22.90;14.30;;;8.70;58.70;;;;;;5039450;28;20470;-86
2021/12/09 07:10:26;;;;;;;26.97;14.00;;;8.80;58.70;;;;;;5054836;28;20452;-86
2021/12/09 07:12:53;;;;;;;22.47;11.80;;;8.80;58.60;;;;;;5052508;28;20556;-88
2021/12/09 07:15:20;;;;;;;25.70;13.50;;;8.80;58.60;;;;;;5034810;28;20464;-85
2021/12/09 07:17:48;;;;;;;31.23;14.77;;;8.70;58.70;;;;;;5037623;28;20470;-88
2021/12/09 07:20:17;;;;;;;30.93;16.23;;;8.70;59.00;;;;;;5054835;28;20472;-87
2021/12/09 07:22:45;;;;;;;34.57;19.90;;;8.70;59.00;;;;;;5036196;28;20445;-87
2021/12/09 07:25:12;;;;;;;52.90;24.30;;;8.80;59.10;;;;;;5052577;28;20442;-87
2021/12/09 07:27:40;;;;;;;60.60;26.40;;;8.70;59.10;;;;;;5052526;28;20488;-86
2021/12/09 07:30:10;;;;;;;32.07;19.43;;;8.70;59.40;;;;;;5054696;28;20453;-88
2021/12/09 07:32:38;;;;;;;45.50;22.37;;;8.70;59.20;;;;;;5052490;28;21144;-87
2021/12/09 07:35:06;;;;;;;41.77;23.33;;;8.80;59.10;;;;;;5038730;28;20897;-87
2021/12/09 07:37:33;;;;;;;38.30;19.03;;;8.80;59.00;;;;;;5015825;28;20474;-87
2021/12/09 07:40:00;;;;;;;47.30;24.60;;;8.80;58.90;;;;;;5036150;28;20959;-87
2021/12/09 07:42:27;;;;;;;37.10;19.20;;;8.80;58.70;;;;;;5037254;28;20462;-88
2021/12/09 07:44:56;;;;;;;41.80;22.53;;;8.70;58.50;;;;;;5037223;28;20872;-87
2021/12/09 07:47:22;;;;;;;43.33;22.63;;;8.50;59.10;;;;;;5020292;28;20461;-87
2021/12/09 07:49:49;;;;;;;30.10;18.03;;;8.40;59.80;;;;;;5020409;28;20533;-86
2021/12/09 07:52:16;;;;;;;33.77;16.70;;;8.40;59.90;;;;;;5026758;28;20894;-87
2021/12/09 07:54:44;;;;;;;43.63;22.63;;;8.20;60.30;;;;;;5035145;28;20456;-87
2021/12/09 07:57:11;;;;;;;39.33;19.97;;;8.40;60.30;;;;;;5038613;28;21227;-87
2021/12/09 07:59:38;;;;;;;34.10;18.50;;;8.50;60.10;;;;;;5018100;28;21016;-87
2021/12/09 08:02:07;;;;;;;41.00;18.57;;;8.60;59.70;;;;;;5038586;28;20449;-87
2021/12/09 08:04:34;;;;;;;27.37;17.30;;;8.70;59.50;;;;;;5033195;28;20445;-87
2021/12/09 08:07:01;;;;;;;27.30;17.30;;;8.70;59.20;;;;;;5028207;28;20964;-86
2021/12/09 08:09:28;;;;;;;32.40;18.40;;;8.80;59.00;;;;;;5051328;28;20504;-88
2021/12/09 08:11:55;;;;;;;34.97;16.50;;;8.80;58.80;;;;;;5053048;28;20576;-87
2021/12/09 08:14:24;;;;;;;27.53;13.73;;;8.80;58.70;;;;;;5052559;28;20547;-87
2021/12/09 08:17:10;;;;;;;32.20;13.40;;;8.80;58.80;;;;;;5022314;28;20817;-87
2021/12/09 08:19:38;;;;;;;25.60;13.97;;;8.80;58.80;;;;;;5002934;28;20531;-90
2021/12/09 08:22:05;;;;;;;24.77;12.97;;;8.80;58.80;;;;;;5055824;28;20460;-87
2021/12/09 08:24:32;;;;;;;31.87;18.90;;;8.90;58.60;;;;;;5053557;28;20461;-86
2021/12/09 08:26:59;;;;;;;35.27;18.70;;;8.90;58.40;;;;;;5029583;28;20458;-87
2021/12/09 08:29:26;;;;;;;24.70;17.77;;;8.70;58.70;;;;;;5043907;28;21357;-87
2021/12/09 08:31:53;;;;;;;33.87;17.70;;;8.40;59.20;;;;;;5027643;28;20852;-86
2021/12/09 08:34:20;;;;;;;33.17;18.67;;;8.40;59.60;;;;;;5056093;28;20465;-87
2021/12/09 08:36:48;;;;;;;28.87;19.70;;;8.30;60.00;;;;;;5037578;28;20457;-86
2021/12/09 08:39:15;;;;;;;35.47;16.83;;;8.20;60.10;;;;;;5056776;28;20460;-87
2021/12/09 08:41:44;;;;;;;26.87;16.30;;;8.20;60.50;;;;;;5042938;28;20447;-86
2021/12/09 08:44:12;;;;;;;22.17;12.50;;;8.20;60.70;;;;;;5056840;28;20541;-87
2021/12/09 08:46:39;;;;;;;20.73;11.50;;;8.30;60.90;;;;;;5056955;28;20955;-86
2021/12/09 08:49:08;;;;;;;17.53;10.87;;;8.40;60.70;;;;;;5022075;28;20485;-87
2021/12/09 08:51:35;;;;;;;20.33;11.20;;;8.60;60.40;;;;;;5014000;28;20813;-87
2021/12/09 08:54:04;;;;;;;22.60;13.13;;;8.70;60.00;;;;;;5047920;28;20460;-86
2021/12/09 08:56:31;;;;;;;21.07;12.53;;;8.90;60.00;;;;;;5048802;28;20488;-86
2021/12/09 08:58:59;;;;;;;25.07;14.27;;;9.00;59.90;;;;;;5032143;28;21044;-88
2021/12/09 09:01:26;;;;;;;22.07;12.93;;;9.10;59.60;;;;;;5036188;28;20473;-86
2021/12/09 09:03:53;;;;;;;23.00;12.97;;;9.10;59.10;;;;;;5017926;28;20828;-88
2021/12/09 09:06:20;;;;;;;24.07;14.00;;;9.10;59.00;;;;;;5056089;28;20540;-86
2021/12/09 09:08:50;;;;;;;26.50;13.90;;;9.10;59.70;;;;;;5039699;28;20484;-88
2021/12/09 09:11:18;;;;;;;28.73;13.23;;;9.10;59.30;;;;;;5019573;28;20451;-86
2021/12/09 09:13:45;;;;;;;20.53;11.53;;;9.10;59.60;;;;;;5043258;28;20880;-86
2021/12/09 09:16:12;;;;;;;22.93;11.73;;;9.00;59.80;;;;;;5036029;28;21183;-87
2021/12/09 09:18:39;;;;;;;23.90;13.90;;;9.00;59.80;;;;;;5027543;28;20892;-88
2021/12/09 09:21:06;;;;;;;29.60;13.43;;;8.90;59.80;;;;;;5053781;28;20452;-87
2021/12/09 09:23:33;;;;;;;28.50;14.40;;;8.90;60.00;;;;;;5036738;28;20461;-86
2021/12/09 09:26:00;;;;;;;26.90;12.17;;;8.90;59.90;;;;;;5038380;28;20973;-87
2021/12/09 09:28:29;;;;;;;21.53;12.27;;;9.00;60.10;;;;;;5056176;28;20484;-87
2021/12/09 09:30:59;;;;;;;18.60;11.77;;;9.00;60.10;;;;;;5035777;28;20449;-86
2021/12/09 09:33:29;;;;;;;31.20;11.07;;;8.90;60.20;;;;;;5025761;28;20971;-87
2021/12/09 09:35:57;;;;;;;17.10;10.53;;;8.90;60.10;;;;;;5038294;28;21170;-87
2021/12/09 09:38:24;;;;;;;20.63;12.00;;;8.80;60.50;;;;;;4997602;28;21047;-87
2021/12/09 09:40:59;;;;;;;31.67;19.30;;;8.90;60.80;;;;;;5056308;28;20468;-86
2021/12/09 09:43:32;;;;;;;20.90;12.47;;;9.00;60.70;;;;;;5028047;28;20456;-87
2021/12/09 09:46:02;;;;;;;21.50;9.83;;;9.10;60.60;;;;;;5019527;28;20536;-84
2021/12/09 09:48:29;;;;;;;18.27;8.87;;;9.10;60.50;;;;;;5051108;28;20466;-88
2021/12/09 09:50:58;;;;;;;15.70;7.83;;;9.10;60.30;;;;;;5036066;28;20444;-86
2021/12/09 09:53:25;;;;;;;17.17;7.80;;;9.20;60.30;;;;;;5055019;28;20460;-86
2021/12/09 09:55:53;;;;;;;11.90;7.30;;;9.10;60.00;;;;;;5055979;28;20628;-88
2021/12/09 09:58:20;;;;;;;11.30;8.03;;;9.10;59.90;;;;;;5022744;28;20472;-87
2021/12/09 10:00:49;;;;;;;18.97;8.00;;;9.20;60.10;;;;;;5023630;28;20449;-86
2021/12/09 10:03:19;;;;;;;13.60;7.70;;;9.30;59.90;;;;;;5035350;28;20453;-86
2021/12/09 10:05:48;;;;;;;11.80;8.37;;;9.20;59.70;;;;;;5054583;28;21136;-85
2021/12/09 10:08:16;;;;;;;14.97;9.53;;;9.20;59.80;;;;;;5053552;28;20489;-87
2021/12/09 10:10:45;;;;;;;13.90;9.17;;;9.20;59.80;;;;;;5052808;28;20456;-87
2021/12/09 10:13:14;;;;;;;10.63;6.77;;;9.20;59.80;;;;;;5051673;28;20457;-86
2021/12/09 10:15:45;;;;;;;17.13;8.03;;;9.10;60.10;;;;;;5019928;28;20453;-85
2021/12/09 10:18:14;;;;;;;10.33;6.87;;;9.10;60.20;;;;;;5023341;28;20821;-87
2021/12/09 10:20:51;;;;;;;16.67;7.40;;;9.10;59.60;;;;;;5058721;28;20467;-87
2021/12/09 10:23:45;;;;;;;12.63;7.10;;;9.10;59.60;;;;;;5057019;28;20467;-86
2021/12/09 10:26:25;;;;;;;14.53;8.10;;;8.90;59.00;;;;;;5058487;28;21015;-87
2021/12/09 10:29:05;;;;;;;13.07;8.00;;;8.90;59.30;;;;;;5024484;28;20578;-86
2021/12/09 10:31:35;;;;;;;9.67;7.03;;;8.80;59.00;;;;;;5039931;28;20531;-86
2021/12/09 10:34:12;;;;;;;9.10;7.00;;;8.90;59.50;;;;;;5040400;28;20527;-87
2021/12/09 10:36:53;;;;;;;18.93;8.00;;;9.00;59.40;;;;;;5058907;28;20458;-86
2021/12/09 10:39:24;;;;;;;16.83;8.17;;;9.10;59.20;;;;;;5042564;28;20466;-85
2021/12/09 10:41:52;;;;;;;17.50;8.97;;;9.10;59.40;;;;;;5041218;28;20457;-86
2021/12/09 10:44:31;;;;;;;15.47;8.40;;;8.90;59.60;;;;;;5046308;28;20468;-87
2021/12/09 10:47:07;;;;;;;15.90;7.70;;;8.90;60.10;;;;;;5019785;28;20457;-85
2021/12/09 10:49:46;;;;;;;19.47;8.43;;;9.00;60.00;;;;;;5038228;28;20565;-87
2021/12/09 10:52:36;;;;;;;20.47;7.63;;;9.20;59.50;;;;;;5037472;28;20531;-88
2021/12/09 10:55:18;;;;;;;16.03;8.90;;;9.30;59.50;;;;;;5057523;28;21271;-86
2021/12/09 10:57:52;;;;;;;15.13;8.70;;;9.30;59.10;;;;;;5022131;28;20864;-86
2021/12/09 11:00:42;;;;;;;11.97;7.97;;;9.30;58.90;;;;;;5059098;28;20954;-87
2021/12/09 11:03:13;;;;;;;19.93;7.33;;;9.30;58.90;;;;;;5038038;28;20506;-87
2021/12/09 11:05:45;;;;;;;13.90;7.70;;;9.30;58.60;;;;;;5055115;28;21160;-87
2021/12/09 11:08:18;;;;;;;13.47;8.27;;;9.40;58.80;;;;;;5040057;28;20876;-88
2021/12/09 11:10:48;;;;;;;13.27;7.53;;;9.50;58.40;;;;;;5057404;28;20465;-88
2021/12/09 11:13:17;;;;;;;13.97;7.80;;;9.40;58.20;;;;;;5057440;28;20515;-87
2021/12/09 11:15:48;;;;;;;12.60;7.93;;;9.30;58.60;;;;;;5060147;28;21210;-87
2021/12/09 11:18:32;;;;;;;13.93;8.10;;;9.40;59.10;;;;;;5036574;28;20476;-86
2021/12/09 11:21:03;;;;;;;18.70;10.37;;;9.40;58.60;;;;;;5037985;28;20481;-89
2021/12/09 11:23:41;;;;;;;15.47;9.63;;;9.30;58.70;;;;;;5036224;28;20453;-86
2021/12/09 11:26:35;;;;;;;15.37;8.10;;;9.40;59.10;;;;;;5040794;28;20441;-86
2021/12/09 11:29:07;;;;;;;14.70;8.40;;;9.40;59.20;;;;;;5039009;28;21376;-87
2021/12/09 11:31:43;;;;;;;18.50;11.30;;;9.40;58.90;;;;;;5037744;28;20456;-87
2021/12/09 11:34:14;;;;;;;30.10;15.03;;;9.50;59.10;;;;;;5057790;28;20554;-86
2021/12/09 11:36:50;;;;;;;37.77;20.27;;;9.60;59.00;;;;;;5056970;28;21229;-86
2021/12/09 11:39:26;;;;;;;48.93;22.67;;;9.60;58.30;;;;;;5027927;28;20521;-86
2021/12/09 11:41:54;;;;;;;37.43;19.93;;;9.50;58.50;;;;;;5044549;28;20453;-87
2021/12/09 11:44:21;;;;;;;20.30;13.70;;;9.40;58.50;;;;;;5054752;28;20472;-86
2021/12/09 11:46:48;;;;;;;20.90;12.37;;;9.40;59.00;;;;;;5057058;28;20464;-86
2021/12/09 11:49:16;;;;;;;25.23;10.60;;;9.40;58.90;;;;;;5056782;28;20477;-86
2021/12/09 11:51:43;;;;;;;22.30;10.80;;;9.30;58.60;;;;;;5030303;28;20515;-87
2021/12/09 11:54:12;;;;;;;16.30;10.60;;;9.00;58.30;;;;;;5056436;28;20827;-87
2021/12/09 12:06:37;;;;;;;23.30;12.10;;;8.90;59.60;;;;;;5023849;28;20452;-86
2021/12/09 12:11:41;;;;;;;20.97;8.87;;;8.90;59.70;;;;;;5044821;28;20551;-88
2021/12/09 12:14:31;;;;;;;21.73;8.10;;;8.90;59.30;;;;;;5056773;28;20546;-86
2021/12/09 12:17:08;;;;;;;17.10;8.83;;;9.00;59.40;;;;;;5052728;28;20515;-85
2021/12/09 12:20:09;;;;;;;16.10;7.30;;;9.10;59.00;;;;;;5027256;28;20465;-87
2021/12/09 12:22:54;;;;;;;15.90;8.90;;;8.80;58.20;;;;;;5036718;28;20447;-86
2021/12/09 12:26:01;;;;;;;20.90;8.90;;;8.90;58.50;;;;;;5021810;28;20823;-84
2021/12/09 12:28:41;;;;;;;14.70;7.97;;;8.90;58.10;;;;;;5052912;28;20841;-86
2021/12/09 12:31:30;;;;;;;17.43;8.40;;;9.00;58.50;;;;;;5054530;28;20468;-86
2021/12/09 12:37:11;;;;;;;23.50;8.27;;;9.00;58.50;;;;;;5053365;28;20445;-87
2021/12/09 12:42:44;;;;;;;15.70;6.63;;;8.80;58.70;;;;;;5053358;28;20461;-86
2021/12/09 12:45:30;;;;;;;26.63;14.53;;;8.60;58.50;;;;;;5043173;28;20461;-86
2021/12/09 12:48:11;;;;;;;18.60;11.23;;;8.50;59.10;;;;;;5009717;28;20913;-88
2021/12/09 12:50:39;;;;;;;21.00;10.47;;;8.50;58.80;;;;;;5053341;28;20632;-87
2021/12/09 12:53:31;;;;;;;17.97;8.83;;;8.50;59.10;;;;;;5038787;28;20452;-86
2021/12/09 12:56:13;;;;;;;15.30;6.60;;;8.60;59.40;;;;;;5055624;28;20472;-85
2021/12/09 12:58:40;;;;;;;19.03;7.10;;;8.60;58.80;;;;;;5039087;28;20492;-86
2021/12/09 13:01:19;;;;;;;21.40;8.60;;;8.60;58.70;;;;;;5034629;28;20550;-86
2021/12/09 13:03:51;;;;;;;13.70;8.50;;;8.60;58.20;;;;;;5055368;28;20448;-85
2021/12/09 13:06:45;;;;;;;16.63;9.67;;;8.60;58.00;;;;;;5056705;28;20484;-87
2021/12/09 13:09:29;;;;;;;24.97;11.87;;;8.60;58.00;;;;;;5037936;28;20477;-86
2021/12/09 13:12:01;;;;;;;26.83;13.63;;;8.60;58.30;;;;;;5035423;28;20444;-87